Time;durP1;ratioP1;P1;durP2;ratioP2;P2;SDS_P1;SDS_P2;PMS_P1;PMS_P2;Temp;Humidity;BMP_temperature;BMP_pressure;BME280_temperature;BME280_humidity;BME280_pressure;Samples;Min_cycle;Max_cycle;Signal;HPM_P1;HPM_P2
2023/05/12 00:03:19;;;;;;;11.60;3.80;;;;;;;13.89;45.17;99227.27;223691;181;138417;-63
2023/05/12 00:08:22;;;;;;;11.90;4.70;;;;;;;13.85;45.14;99222.75;223914;183;136848;-62
2023/05/12 00:13:27;;;;;;;10.10;3.90;;;;;;;13.83;45.23;99229.52;223771;181;147143;-62
2023/05/12 00:18:30;;;;;;;10.90;3.90;;;;;;;13.78;45.49;99226.83;223871;181;138142;-62
2023/05/12 00:23:36;;;;;;;10.10;4.30;;;;;;;13.73;45.61;99223.61;223828;181;137301;-63
2023/05/12 00:28:39;;;;;;;12.80;4.20;;;;;;;13.68;45.46;99223.27;223915;181;147846;-64
2023/05/12 00:33:42;;;;;;;9.60;4.00;;;;;;;13.63;45.49;99223.13;223849;182;138308;-63
2023/05/12 00:38:44;;;;;;;13.20;4.10;;;;;;;13.56;45.50;99225.90;223863;181;137301;-64
2023/05/12 00:43:48;;;;;;;10.90;3.90;;;;;;;13.53;45.69;99231.66;223772;181;146800;-64
2023/05/12 00:48:51;;;;;;;9.20;3.70;;;;;;;13.48;45.65;99230.38;222621;182;141522;-63
2023/05/12 00:53:56;;;;;;;7.20;3.90;;;;;;;13.39;46.10;99233.19;223929;182;137472;-63
2023/05/12 00:58:59;;;;;;;10.70;3.90;;;;;;;13.34;46.14;99232.69;223883;182;147855;-63
2023/05/12 01:04:03;;;;;;;9.50;3.90;;;;;;;13.24;46.70;99230.81;223890;182;138320;-65
2023/05/12 01:09:07;;;;;;;10.50;4.20;;;;;;;13.21;46.49;99235.69;223904;182;137729;-71
2023/05/12 01:14:10;;;;;;;7.00;3.90;;;;;;;13.15;46.80;99236.66;223900;182;147132;-68
2023/05/12 01:19:30;;;;;;;10.70;3.80;;;;;;;13.10;47.01;99239.28;223889;182;138475;-68
2023/05/12 01:24:41;;;;;;;12.40;4.30;;;;;;;13.08;46.99;99237.48;223858;181;139026;-67
2023/05/12 01:29:46;;;;;;;11.80;3.90;;;;;;;13.07;46.93;99239.64;223777;182;147101;-68
2023/05/12 01:34:51;;;;;;;11.70;4.00;;;;;;;13.04;47.09;99243.80;223862;182;139162;-68
2023/05/12 01:39:55;;;;;;;12.90;4.10;;;;;;;12.98;47.01;99249.89;223930;182;137848;-67
2023/05/12 01:44:58;;;;;;;6.60;3.80;;;;;;;12.95;47.09;99255.42;223816;182;147143;-68
2023/05/12 01:50:02;;;;;;;10.90;4.10;;;;;;;12.92;47.25;99254.02;223868;181;139256;-67
2023/05/12 01:55:07;;;;;;;15.40;4.50;;;;;;;12.89;47.37;99253.52;223902;181;137674;-68
2023/05/12 02:00:29;;;;;;;11.60;4.20;;;;;;;12.83;47.67;99249.85;223940;182;147025;-68
2023/05/12 02:05:32;;;;;;;10.50;4.50;;;;;;;12.76;47.76;99249.58;223878;182;138875;-62
2023/05/12 02:10:36;;;;;;;13.60;4.10;;;;;;;12.75;47.94;99251.48;223911;182;139047;-62
2023/05/12 02:15:39;;;;;;;11.80;4.10;;;;;;;12.73;48.05;99246.05;223882;182;147388;-62
2023/05/12 02:20:42;;;;;;;10.10;4.20;;;;;;;12.68;48.22;99248.39;223920;182;138352;-63
2023/05/12 02:25:45;;;;;;;12.00;4.40;;;;;;;12.61;48.41;99251.31;223845;182;137885;-62
2023/05/12 02:30:49;;;;;;;14.10;4.30;;;;;;;12.54;48.52;99256.21;223902;181;147670;-63
2023/05/12 02:35:53;;;;;;;11.10;4.10;;;;;;;12.48;48.75;99255.94;223920;182;138157;-63
2023/05/12 02:40:56;;;;;;;56.60;37.60;;;;;;;12.43;48.96;99262.15;223962;182;136849;-62
2023/05/12 02:46:00;;;;;;;26.90;17.30;;;;;;;12.41;49.32;99263.33;223857;182;147456;-63
2023/05/12 02:51:04;;;;;;;153.20;114.10;;;;;;;12.37;49.31;99263.08;223904;182;138835;-62
2023/05/12 02:56:07;;;;;;;16.80;9.30;;;;;;;12.33;49.97;99257.50;223911;182;139990;-62
2023/05/12 03:01:10;;;;;;;6.60;4.20;;;;;;;12.28;49.71;99259.73;223899;181;147432;-62
2023/05/12 03:06:14;;;;;;;7.90;4.20;;;;;;;12.24;49.64;99256.48;221866;182;138951;-61
2023/05/12 03:11:18;;;;;;;7.90;3.80;;;;;;;12.18;49.72;99252.79;221308;182;138274;-62
2023/05/12 03:16:21;;;;;;;12.20;3.90;;;;;;;12.10;49.93;99250.96;221209;182;148184;-63
2023/05/12 03:21:24;;;;;;;5.60;3.50;;;;;;;12.06;50.35;99249.80;223892;182;138208;-62
2023/05/12 03:26:27;;;;;;;280.10;218.60;;;;;;;12.03;50.47;99252.30;223979;182;136491;-61
2023/05/12 03:31:30;;;;;;;15.30;9.80;;;;;;;12.01;50.62;99250.67;223895;181;146955;-62
2023/05/12 03:36:33;;;;;;;8.20;4.90;;;;;;;11.97;50.68;99253.26;223898;181;138192;-62
2023/05/12 03:41:37;;;;;;;7.70;4.10;;;;;;;11.93;50.93;99254.23;223894;181;136830;-64
2023/05/12 03:46:40;;;;;;;7.90;3.80;;;;;;;11.96;51.11;99257.92;223896;182;147174;-64
2023/05/12 03:51:44;;;;;;;6.60;3.70;;;;;;;11.99;51.37;99262.53;223958;179;140002;-64
2023/05/12 03:56:47;;;;;;;6.70;3.80;;;;;;;12.01;51.22;99262.76;223894;181;137761;-63
2023/05/12 04:01:52;;;;;;;44.30;31.10;;;;;;;12.07;51.70;99268.20;223855;182;147123;-63
2023/05/12 04:06:55;;;;;;;7.50;4.60;;;;;;;12.14;51.22;99272.94;223778;182;138504;-63
2023/05/12 04:11:59;;;;;;;8.80;3.70;;;;;;;12.15;51.24;99273.03;223909;181;136962;-63
2023/05/12 04:17:03;;;;;;;7.00;4.20;;;;;;;12.13;51.35;99276.42;223972;182;147853;-64
2023/05/12 04:22:06;;;;;;;9.20;4.10;;;;;;;12.13;51.52;99279.58;223848;181;138444;-65
2023/05/12 04:27:09;;;;;;;8.10;4.30;;;;;;;12.18;51.52;99284.41;223900;182;137136;-63
2023/05/12 04:32:13;;;;;;;5.90;4.10;;;;;;;12.21;51.61;99288.52;223847;181;147576;-64
2023/05/12 04:37:16;;;;;;;8.10;4.00;;;;;;;12.21;51.56;99289.58;223836;182;138588;-64
2023/05/12 04:42:20;;;;;;;6.00;3.40;;;;;;;12.21;51.63;99291.66;223856;181;136713;-63
2023/05/12 04:47:23;;;;;;;10.00;3.80;;;;;;;12.18;51.70;99289.02;223875;181;147627;-64
2023/05/12 04:52:26;;;;;;;8.90;4.20;;;;;;;12.18;51.94;99292.08;223868;181;138357;-64
2023/05/12 04:57:29;;;;;;;10.10;4.20;;;;;;;12.22;52.29;99295.02;223935;181;136857;-62
2023/05/12 05:02:33;;;;;;;7.40;4.00;;;;;;;12.29;52.32;99293.49;223950;182;147165;-63
2023/05/12 05:07:36;;;;;;;7.90;4.40;;;;;;;12.33;52.32;99297.16;223903;182;138430;-61
2023/05/12 05:12:40;;;;;;;11.70;3.80;;;;;;;12.38;52.41;99298.09;223928;181;137595;-61
2023/05/12 05:17:47;;;;;;;6.40;3.60;;;;;;;12.47;52.52;99306.37;223959;182;147875;-61
2023/05/12 05:22:51;;;;;;;10.90;3.80;;;;;;;12.62;52.34;99308.94;223934;182;138580;-62
2023/05/12 05:27:54;;;;;;;5.90;3.60;;;;;;;12.71;52.13;99306.39;223880;181;137236;-63
2023/05/12 05:32:58;;;;;;;5.90;3.60;;;;;;;12.77;51.99;99305.96;223557;182;147167;-63
2023/05/12 05:38:02;;;;;;;7.60;3.40;;;;;;;12.98;51.90;99312.60;221133;182;138579;-65
2023/05/12 05:43:06;;;;;;;8.30;3.90;;;;;;;13.21;51.86;99320.33;221218;182;137203;-66
2023/05/12 05:48:10;;;;;;;7.70;3.90;;;;;;;13.36;51.64;99321.95;223838;182;147178;-63
2023/05/12 05:53:13;;;;;;;11.90;3.80;;;;;;;13.47;51.51;99324.00;223880;182;138425;-63
2023/05/12 05:58:17;;;;;;;8.30;4.10;;;;;;;13.51;51.09;99328.42;223936;182;138629;-63
2023/05/12 06:03:22;;;;;;;10.00;3.90;;;;;;;13.60;50.99;99327.81;223725;182;147131;-68
2023/05/12 06:08:25;;;;;;;7.40;3.90;;;;;;;13.73;51.03;99327.38;223834;182;138468;-70
2023/05/12 06:13:29;;;;;;;9.30;4.20;;;;;;;13.83;50.49;99327.93;222874;181;137686;-63
2023/05/12 06:18:36;;;;;;;9.50;4.40;;;;;;;13.97;50.73;99329.61;223013;182;147939;-62
2023/05/12 06:23:40;;;;;;;12.40;3.80;;;;;;;14.12;51.14;99332.80;223784;181;139223;-63
2023/05/12 06:28:43;;;;;;;12.10;4.30;;;;;;;14.35;50.09;99336.15;223908;181;136829;-63
2023/05/12 06:33:46;;;;;;;7.80;3.60;;;;;;;14.51;49.64;99331.60;223941;181;147051;-64
2023/05/12 06:38:49;;;;;;;8.20;3.70;;;;;;;14.62;49.58;99334.40;223896;182;138130;-67
2023/05/12 06:43:52;;;;;;;8.20;3.60;;;;;;;14.71;49.73;99332.30;223976;181;140607;-69
2023/05/12 06:49:02;;;;;;;11.80;3.60;;;;;;;14.76;49.38;99330.66;223883;182;146928;-67
2023/05/12 06:54:05;;;;;;;14.80;3.70;;;;;;;14.77;49.00;99335.64;223942;182;138207;-65
2023/05/12 06:59:08;;;;;;;10.40;3.50;;;;;;;14.79;49.04;99333.52;223831;181;137377;-63
2023/05/12 07:04:11;;;;;;;7.80;3.70;;;;;;;14.95;49.27;99331.56;223885;181;148660;-64
2023/05/12 07:09:17;;;;;;;10.40;3.90;;;;;;;15.13;49.45;99334.16;223970;182;138401;-64
2023/05/12 07:14:20;;;;;;;;;;;;;;;15.28;49.30;99330.69;223975;181;137653;-64
2023/05/12 07:19:23;;;;;;;10.20;3.90;;;;;;;15.43;48.79;99333.13;224055;182;148733;-63
2023/05/12 07:24:26;;;;;;;10.80;3.80;;;;;;;15.54;48.71;99334.77;223868;181;138353;-62
2023/05/12 07:29:29;;;;;;;7.60;3.50;;;;;;;15.67;48.74;99335.50;223901;181;137554;-65
2023/05/12 07:34:33;;;;;;;9.20;3.50;;;;;;;15.84;48.82;99328.11;223918;181;148669;-68
2023/05/12 07:39:36;;;;;;;180.60;122.00;;;;;;;15.98;48.09;99332.55;223930;181;138560;-65
2023/05/12 07:44:40;;;;;;;11.10;5.20;;;;;;;16.16;48.78;99336.70;223838;181;141724;-64
2023/05/12 07:49:43;;;;;;;13.00;3.50;;;;;;;16.32;47.15;99328.20;223934;182;146797;-67
2023/05/12 07:54:46;;;;;;;12.20;3.10;;;;;;;16.41;47.03;99327.17;223860;182;138413;-66
2023/05/12 07:59:49;;;;;;;8.40;3.10;;;;;;;16.52;46.97;99328.36;223887;182;137041;-67
2023/05/12 08:04:52;;;;;;;6.50;3.10;;;;;;;16.68;46.81;99317.94;223829;181;147948;-67
2023/05/12 08:09:55;;;;;;;5.00;2.40;;;;;;;16.87;45.87;99321.35;223804;181;138321;-67
2023/05/12 08:14:58;;;;;;;6.80;2.40;;;;;;;17.07;44.93;99317.20;223812;182;136848;-66
2023/05/12 08:20:03;;;;;;;8.50;2.90;;;;;;;17.24;45.43;99323.83;223810;182;147134;-66
2023/05/12 08:25:09;;;;;;;4.20;2.60;;;;;;;17.35;44.88;99321.09;223761;181;140860;-65
2023/05/12 08:30:14;;;;;;;56.10;41.40;;;;;;;17.44;45.74;99319.40;223912;182;136787;-65
2023/05/12 08:35:18;;;;;;;10.80;3.00;;;;;;;17.74;45.80;99322.41;223560;181;147109;-66
2023/05/12 08:40:24;;;;;;;11.40;6.10;;;;;;;18.00;45.83;99318.00;223021;182;139187;-65
2023/05/12 08:45:28;;;;;;;6.20;2.20;;;;;;;18.38;45.87;99319.75;223800;181;137774;-64
2023/05/12 08:50:34;;;;;;;6.70;2.00;;;;;;;18.56;42.36;99321.62;223837;182;147536;-65
2023/05/12 08:55:41;;;;;;;10.10;2.60;;;;;;;18.59;41.61;99322.05;223980;182;138894;-65
2023/05/12 09:01:04;;;;;;;10.90;2.60;;;;;;;18.67;42.60;99317.70;223835;182;137333;-63
2023/05/12 09:06:09;;;;;;;13.50;6.60;;;;;;;18.86;42.24;99314.68;223852;182;147766;-64
2023/05/12 09:11:13;;;;;;;9.70;4.40;;;;;;;19.05;43.34;99308.15;223865;181;138441;-65
2023/05/12 09:16:21;;;;;;;11.40;2.60;;;;;;;19.25;42.83;99311.69;223832;181;137736;-66
2023/05/12 09:21:25;;;;;;;3.50;2.60;;;;;;;19.43;42.28;99307.32;223780;182;146916;-65
2023/05/12 09:26:28;;;;;;;4.40;2.10;;;;;;;19.57;41.12;99308.10;223733;181;138636;-65
2023/05/12 09:31:31;;;;;;;4.20;1.70;;;;;;;19.69;39.95;99307.89;223876;182;137193;-64
2023/05/12 09:36:35;;;;;;;4.10;2.00;;;;;;;19.84;39.84;99301.08;223808;181;146745;-68
2023/05/12 09:41:41;;;;;;;165.30;130.40;;;;;;;19.97;37.66;99303.97;223889;181;138226;-66
2023/05/12 09:46:46;;;;;;;4.70;2.30;;;;;;;20.22;37.46;99298.80;222275;182;140068;-66
2023/05/12 09:51:57;;;;;;;8.50;2.00;;;;;;;20.41;36.56;99294.39;221250;182;147274;-64
2023/05/12 09:57:03;;;;;;;4.90;2.00;;;;;;;20.46;36.73;99290.48;221232;181;139690;-66
2023/05/12 10:02:08;;;;;;;;;;;;;;;20.53;36.98;99295.77;223871;181;137259;-66
2023/05/12 10:07:13;;;;;;;3.70;2.00;;;;;;;20.53;35.09;99292.01;224013;182;147423;-66
2023/05/12 10:12:16;;;;;;;6.50;1.90;;;;;;;20.45;35.09;99291.10;223731;181;138104;-65
2023/05/12 10:17:20;;;;;;;5.50;1.70;;;;;;;20.44;34.55;99295.14;223929;182;137287;-65
2023/05/12 10:22:23;;;;;;;4.50;2.10;;;;;;;20.63;34.57;99289.20;223989;182;147220;-65
2023/05/12 10:27:28;;;;;;;7.00;4.00;;;;;;;20.95;34.94;99288.25;222228;182;138053;-64
2023/05/12 10:32:32;;;;;;;4.10;2.00;;;;;;;20.85;33.73;99284.49;221250;182;137990;-65
2023/05/12 10:37:38;;;;;;;3.30;1.80;;;;;;;20.89;34.48;99284.80;223902;182;147487;-63
2023/05/12 10:42:42;;;;;;;7.40;1.90;;;;;;;21.17;33.75;99279.02;223855;179;138748;-63
2023/05/12 10:47:45;;;;;;;3.60;1.70;;;;;;;21.35;33.36;99278.98;223847;181;138223;-63
2023/05/12 10:52:53;;;;;;;7.20;2.30;;;;;;;21.54;32.96;99276.75;223902;181;147248;-64
2023/05/12 10:58:08;;;;;;;6.60;2.10;;;;;;;21.41;33.09;99272.63;223931;182;138342;-63
2023/05/12 11:03:15;;;;;;;6.20;3.90;;;;;;;21.38;33.39;99276.14;223922;182;137470;-64
2023/05/12 11:08:21;;;;;;;8.30;6.00;;;;;;;21.17;33.97;99279.09;223907;181;147280;-63
2023/05/12 11:13:25;;;;;;;10.30;5.70;;;;;;;21.00;34.46;99280.72;223949;181;138263;-63
2023/05/12 11:18:28;;;;;;;11.80;7.10;;;;;;;20.72;34.65;99281.07;223917;182;139855;-65
2023/05/12 11:23:31;;;;;;;6.60;2.90;;;;;;;20.57;34.44;99284.52;223892;182;146882;-67
2023/05/12 11:28:40;;;;;;;4.90;2.60;;;;;;;20.84;34.24;99286.31;223830;181;138783;-68
2023/05/12 11:33:44;;;;;;;3.20;2.20;;;;;;;21.29;33.84;99290.66;223711;182;136893;-67
2023/05/12 11:38:49;;;;;;;4.90;2.00;;;;;;;21.25;33.58;99290.29;223848;181;147113;-68
2023/05/12 11:43:54;;;;;;;;;;;;;;;21.34;33.35;99292.84;223836;181;138107;-68
2023/05/12 11:48:58;;;;;;;11.10;2.30;;;;;;;21.30;33.68;99286.95;224003;182;130800;-66
2023/05/12 11:54:02;;;;;;;36.00;29.40;;;;;;;21.14;33.68;99290.91;223756;182;149171;-67
2023/05/12 11:59:05;;;;;;;4.70;2.80;;;;;;;21.06;33.63;99286.98;223687;181;138357;-63
2023/05/12 12:04:08;;;;;;;9.30;2.80;;;;;;;21.16;33.63;99288.55;223732;181;137346;-65
2023/05/12 12:09:12;;;;;;;12.30;2.60;;;;;;;21.18;32.38;99289.59;223887;181;147125;-66
2023/05/12 12:14:15;;;;;;;10.50;3.30;;;;;;;21.10;32.43;99289.45;223824;181;141762;-69
2023/05/12 12:19:18;;;;;;;6.30;2.60;;;;;;;21.53;33.66;99280.55;223835;181;136821;-66
2023/05/12 12:24:22;;;;;;;9.70;2.20;;;;;;;21.88;32.41;99280.69;223889;182;147107;-67
2023/05/12 12:29:27;;;;;;;13.00;3.40;;;;;;;21.62;31.67;99279.82;223759;181;139232;-64
2023/05/12 12:34:30;;;;;;;11.90;3.00;;;;;;;21.33;32.53;99282.23;223795;181;137990;-66
2023/05/12 12:39:33;;;;;;;4.90;2.40;;;;;;;21.53;32.69;99278.16;223679;181;147521;-66
2023/05/12 12:44:36;;;;;;;24.60;17.90;;;;;;;22.12;31.07;99276.92;223813;181;138389;-64
2023/05/12 12:49:39;;;;;;;7.30;3.40;;;;;;;22.44;31.54;99280.59;223913;182;137209;-63
2023/05/12 12:54:42;;;;;;;6.90;2.30;;;;;;;22.41;31.76;99278.17;223766;181;147365;-63
2023/05/12 12:59:45;;;;;;;4.30;2.10;;;;;;;22.97;31.02;99264.45;223790;182;138302;-64
2023/05/12 13:04:48;;;;;;;10.20;2.30;;;;;;;23.47;30.48;99263.95;223707;181;136674;-64
2023/05/12 13:09:51;;;;;;;13.90;2.40;;;;;;;23.26;30.52;99263.84;223772;182;148349;-64
2023/05/12 13:14:55;;;;;;;7.80;2.60;;;;;;;22.73;30.81;99262.75;223722;182;140830;-64
2023/05/12 13:19:58;;;;;;;23.90;15.10;;;;;;;22.26;31.39;99265.16;223773;182;138550;-66
2023/05/12 13:25:01;;;;;;;23.20;11.30;;;;;;;22.21;31.71;99266.58;223834;181;147102;-65
2023/05/12 13:30:07;;;;;;;8.30;3.20;;;;;;;22.39;31.10;99262.61;223839;182;153309;-64
2023/05/12 13:35:10;;;;;;;4.80;2.00;;;;;;;22.37;30.74;99264.91;223804;181;137441;-64
2023/05/12 13:40:13;;;;;;;11.00;2.90;;;;;;;22.28;30.54;99259.56;223839;181;147150;-64
2023/05/12 13:45:16;;;;;;;9.80;2.30;;;;;;;22.54;31.03;99261.23;223786;181;138310;-65
2023/05/12 13:50:21;;;;;;;11.50;3.10;;;;;;;22.33;30.59;99266.39;223787;182;137297;-63
2023/05/12 13:55:24;;;;;;;9.40;3.10;;;;;;;21.87;31.23;99266.20;223865;182;148999;-63
2023/05/12 14:00:28;;;;;;;6.60;2.40;;;;;;;21.66;32.63;99259.22;223841;182;139013;-63
2023/05/12 14:05:31;;;;;;;6.60;3.10;;;;;;;22.09;32.41;99257.47;223815;182;136339;-63
2023/05/12 14:10:34;;;;;;;8.90;2.90;;;;;;;22.62;31.50;99254.75;223789;182;147133;-63
2023/05/12 14:15:38;;;;;;;11.30;3.00;;;;;;;22.98;29.73;99243.59;223700;181;138427;-63
2023/05/12 14:20:51;;;;;;;9.80;3.00;;;;;;;23.11;29.08;99248.69;223766;181;138573;-61
2023/05/12 14:25:54;;;;;;;7.50;2.40;;;;;;;23.01;28.88;99245.97;223852;181;147127;-63
2023/05/12 14:30:57;;;;;;;6.70;2.90;;;;;;;22.85;28.65;99244.21;223809;183;138539;-63
2023/05/12 14:36:00;;;;;;;7.50;2.10;;;;;;;22.66;29.24;99241.79;223882;182;137716;-62
2023/05/12 14:41:10;;;;;;;12.80;2.20;;;;;;;22.53;28.83;99249.86;223853;181;148797;-63
2023/05/12 14:46:13;;;;;;;11.70;6.10;;;;;;;22.32;29.68;99249.33;223704;182;138456;-64
2023/05/12 14:51:17;;;;;;;10.80;2.30;;;;;;;22.20;29.62;99253.33;223838;182;137642;-64
2023/05/12 14:56:20;;;;;;;6.50;2.00;;;;;;;22.06;29.23;99246.46;223862;181;148128;-63
2023/05/12 15:01:23;;;;;;;6.60;1.70;;;;;;;21.82;29.20;99253.52;223809;181;138941;-63
2023/05/12 15:06:26;;;;;;;7.60;1.90;;;;;;;21.73;28.94;99257.95;223827;181;136464;-64
2023/05/12 15:11:29;;;;;;;11.70;2.20;;;;;;;21.57;29.26;99251.24;223887;181;147198;-65
2023/05/12 15:16:33;;;;;;;11.20;6.10;;;;;;;21.40;29.49;99252.53;223875;181;139752;-66
2023/05/12 15:21:36;;;;;;;9.80;2.40;;;;;;;21.29;29.76;99254.35;223835;181;137235;-64
2023/05/12 15:26:39;;;;;;;10.40;2.00;;;;;;;21.22;29.43;99253.95;223959;181;147110;-68
2023/05/12 15:31:42;;;;;;;29.40;18.00;;;;;;;21.13;29.41;99255.98;223824;181;138839;-63
2023/05/12 15:36:47;;;;;;;8.40;2.40;;;;;;;21.03;29.51;99257.85;223834;182;137144;-67
2023/05/12 15:41:50;;;;;;;12.50;2.10;;;;;;;20.97;30.17;99255.22;223847;181;147095;-60
2023/05/12 15:46:54;;;;;;;5.30;1.50;;;;;;;20.92;30.44;99258.15;223830;181;139201;-61
2023/05/12 15:51:57;;;;;;;19.70;2.10;;;;;;;20.82;29.79;99259.65;223929;182;137157;-61
2023/05/12 15:57:01;;;;;;;8.20;1.90;;;;;;;20.71;29.84;99263.10;223861;181;147548;-61
2023/05/12 16:02:04;;;;;;;8.70;1.90;;;;;;;20.65;30.40;99262.69;223791;182;139296;-60
2023/05/12 16:07:07;;;;;;;8.50;1.90;;;;;;;20.57;30.53;99255.52;223846;182;136896;-61
2023/05/12 16:12:10;;;;;;;17.20;11.90;;;;;;;20.46;31.09;99262.58;223845;182;147564;-65
2023/05/12 16:17:13;;;;;;;8.90;1.70;;;;;;;20.33;30.44;99261.83;223895;181;138909;-61
2023/05/12 16:22:16;;;;;;;3.50;1.80;;;;;;;20.24;30.44;99266.48;223854;182;136958;-60
2023/05/12 16:27:19;;;;;;;4.10;1.80;;;;;;;20.17;31.15;99268.13;223838;181;146847;-61
2023/05/12 16:32:23;;;;;;;5.90;2.00;;;;;;;20.16;31.40;99269.15;223856;181;138831;-60
2023/05/12 16:37:26;;;;;;;7.70;2.10;;;;;;;20.12;31.76;99277.29;223798;181;140468;-60
2023/05/12 16:42:30;;;;;;;6.60;1.90;;;;;;;20.11;32.04;99281.64;223843;181;147172;-62
2023/05/12 16:47:33;;;;;;;3.80;1.90;;;;;;;20.09;32.41;99286.67;223791;182;138916;-61
2023/05/12 16:52:36;;;;;;;8.20;1.90;;;;;;;20.04;32.60;99287.92;223827;181;137107;-63
2023/05/12 16:57:39;;;;;;;96.70;67.80;;;;;;;20.00;32.72;99290.34;223860;181;147572;-64
2023/05/12 17:02:45;;;;;;;11.90;5.20;;;;;;;19.94;32.68;99291.39;223757;181;138262;-63
2023/05/12 17:07:48;;;;;;;5.80;2.30;;;;;;;19.92;32.73;99298.89;223846;183;138721;-62
2023/05/12 17:12:51;;;;;;;6.10;2.00;;;;;;;19.87;32.49;99297.85;223911;182;147946;-64
2023/05/12 17:17:55;;;;;;;7.80;3.50;;;;;;;19.83;32.57;99301.80;223741;182;138543;-63
2023/05/12 17:22:59;;;;;;;7.50;3.70;;;;;;;19.82;32.36;99300.53;223783;181;136431;-64
2023/05/12 17:28:03;;;;;;;3.60;2.00;;;;;;;19.76;31.98;99303.29;223764;182;147053;-64
2023/05/12 17:33:07;;;;;;;9.10;2.70;;;;;;;19.69;32.70;99306.27;223827;182;152371;-64
2023/05/12 17:38:10;;;;;;;15.70;8.00;;;;;;;19.63;33.16;99316.71;223749;182;137265;-63
2023/05/12 17:43:14;;;;;;;3.80;2.30;;;;;;;19.52;31.74;99320.27;223876;181;148068;-63
2023/05/12 17:48:18;;;;;;;5.20;2.10;;;;;;;19.17;31.63;99321.23;223733;181;142033;-64
2023/05/12 17:53:21;;;;;;;7.80;2.50;;;;;;;18.93;32.07;99321.45;223839;182;137584;-64
2023/05/12 17:58:24;;;;;;;6.30;2.10;;;;;;;18.77;32.43;99331.18;223705;181;147043;-65
2023/05/12 18:03:27;;;;;;;4.90;2.20;;;;;;;18.59;32.77;99333.34;223716;181;138374;-64
2023/05/12 18:08:30;;;;;;;4.20;2.10;;;;;;;18.44;33.22;99337.59;223787;181;137554;-64
2023/05/12 18:13:33;;;;;;;3.80;2.20;;;;;;;18.30;33.48;99341.86;223735;181;147698;-63
2023/05/12 18:18:37;;;;;;;3.70;2.20;;;;;;;18.16;33.87;99342.41;223814;181;139454;-65
2023/05/12 18:23:40;;;;;;;6.50;2.40;;;;;;;18.07;34.09;99347.52;223858;182;137120;-65
2023/05/12 18:28:43;;;;;;;44.10;38.30;;;;;;;17.97;34.26;99354.66;223851;182;147214;-63
2023/05/12 18:33:47;;;;;;;7.80;4.50;;;;;;;17.91;35.09;99354.30;223799;181;138447;-63
2023/05/12 18:38:50;;;;;;;5.10;2.60;;;;;;;17.90;36.30;99360.47;223853;181;137532;-62
2023/05/12 18:43:53;;;;;;;6.20;2.30;;;;;;;17.70;36.09;99364.88;223870;181;147139;-63
2023/05/12 18:48:56;;;;;;;8.90;2.20;;;;;;;17.54;36.31;99367.77;223799;181;140181;-63
2023/05/12 18:53:59;;;;;;;4.20;2.40;;;;;;;17.41;36.71;99371.70;223880;181;137863;-63
2023/05/12 18:59:03;;;;;;;6.00;2.40;;;;;;;17.27;36.64;99374.37;223689;181;147195;-63
2023/05/12 19:04:06;;;;;;;4.50;2.00;;;;;;;17.16;37.13;99379.17;223668;181;138389;-64
2023/05/12 19:09:09;;;;;;;9.20;2.50;;;;;;;17.05;37.29;99374.52;223804;182;136942;-63
2023/05/12 19:14:14;;;;;;;8.50;2.50;;;;;;;16.95;37.27;99376.60;223861;182;147865;-63
2023/05/12 19:19:17;;;;;;;6.80;2.40;;;;;;;16.93;37.10;99379.86;223771;182;138727;-63
2023/05/12 19:24:24;;;;;;;43.90;35.90;;;;;;;16.88;37.74;99384.45;223754;181;137319;-63
2023/05/12 19:29:27;;;;;;;38.00;24.10;;;;;;;16.87;37.93;99386.60;223906;181;147713;-63
2023/05/12 19:34:31;;;;;;;8.00;3.30;;;;;;;16.88;37.44;99391.38;223782;182;138492;-62
2023/05/12 19:39:34;;;;;;;4.90;2.90;;;;;;;16.80;37.33;99394.02;223831;181;136989;-62
2023/05/12 19:44:37;;;;;;;7.30;2.80;;;;;;;16.77;37.12;99395.50;223790;182;147025;-62
2023/05/12 19:49:40;;;;;;;5.60;3.10;;;;;;;16.76;37.11;99398.65;223881;182;139240;-62
2023/05/12 19:54:43;;;;;;;5.00;2.30;;;;;;;16.75;37.12;99401.88;223782;181;137093;-62
2023/05/12 19:59:46;;;;;;;5.90;2.50;;;;;;;16.70;36.96;99398.52;223829;181;146818;-61
2023/05/12 20:04:49;;;;;;;7.20;2.60;;;;;;;16.70;36.98;99400.70;223805;181;138790;-61
2023/05/12 20:09:53;;;;;;;6.90;2.90;;;;;;;16.67;37.09;99405.43;223844;182;137254;-61
2023/05/12 20:14:56;;;;;;;11.20;3.20;;;;;;;16.64;36.88;99403.55;223873;181;147325;-61
2023/05/12 20:20:00;;;;;;;5.70;3.10;;;;;;;16.62;36.69;99409.02;223874;182;138926;-60
2023/05/12 20:25:04;;;;;;;7.50;2.80;;;;;;;16.57;36.60;99406.91;223833;181;137561;-60
2023/05/12 20:30:08;;;;;;;7.60;2.90;;;;;;;16.56;36.67;99405.94;223815;181;147427;-63
2023/05/12 20:35:11;;;;;;;6.70;3.10;;;;;;;16.53;36.75;99408.89;223898;181;138727;-60
2023/05/12 20:40:15;;;;;;;7.60;2.70;;;;;;;16.50;36.66;99407.13;223888;182;137382;-60
2023/05/12 20:45:18;;;;;;;3.90;2.40;;;;;;;16.47;36.85;99401.85;223851;182;147880;-61
2023/05/12 20:50:22;;;;;;;5.10;2.60;;;;;;;16.44;36.83;99405.66;223842;181;138457;-62
2023/05/12 20:55:25;;;;;;;9.40;2.90;;;;;;;16.40;37.02;99404.02;223922;181;159705;-61
2023/05/12 21:00:28;;;;;;;7.40;2.90;;;;;;;16.35;37.23;99405.89;223842;182;147590;-61
2023/05/12 21:05:31;;;;;;;7.20;2.90;;;;;;;16.24;37.25;99407.98;223794;182;138202;-60
2023/05/12 21:10:38;;;;;;;4.10;3.00;;;;;;;16.17;37.57;99409.41;223927;182;136969;-60
2023/05/12 21:15:41;;;;;;;4.90;3.20;;;;;;;16.10;37.69;99413.03;223848;182;148444;-63
2023/05/12 21:20:44;;;;;;;5.50;2.90;;;;;;;16.04;37.99;99415.30;223768;182;138449;-60
2023/05/12 21:25:47;;;;;;;5.40;2.70;;;;;;;15.96;38.31;99422.23;223892;182;139732;-60
2023/05/12 21:30:51;;;;;;;9.10;3.20;;;;;;;15.88;38.89;99421.91;223956;181;147784;-59
2023/05/12 21:35:54;;;;;;;9.20;3.20;;;;;;;15.82;38.86;99421.17;223855;181;138547;-61
2023/05/12 21:40:57;;;;;;;7.90;3.40;;;;;;;15.76;38.93;99428.42;223858;181;137628;-59
2023/05/12 21:46:02;;;;;;;6.30;3.20;;;;;;;15.72;38.78;99435.14;223858;181;147071;-63
2023/05/12 21:51:06;;;;;;;6.90;2.80;;;;;;;15.67;38.89;99440.21;223836;181;138307;-60
2023/05/12 21:56:09;;;;;;;6.10;3.50;;;;;;;15.60;39.46;99439.59;223820;181;139048;-59
2023/05/12 22:01:12;;;;;;;9.40;4.20;;;;;;;15.56;39.99;99444.20;223881;181;146862;-58
2023/05/12 22:06:15;;;;;;;8.00;3.60;;;;;;;15.51;40.17;99440.45;223523;182;139391;-59
2023/05/12 22:11:18;;;;;;;7.60;3.40;;;;;;;15.47;40.68;99440.79;222955;181;137058;-58
2023/05/12 22:16:22;;;;;;;12.30;3.10;;;;;;;15.40;41.20;99440.77;221141;204;147628;-59
2023/05/12 22:21:36;;;;;;;9.80;3.50;;;;;;;15.35;41.14;99442.91;221143;182;140322;-59
2023/05/12 22:26:40;;;;;;;9.00;3.50;;;;;;;15.31;41.37;99445.38;222404;181;137870;-59
2023/05/12 22:31:43;;;;;;;4.70;3.00;;;;;;;15.26;41.69;99442.72;223853;182;147038;-61
2023/05/12 22:36:46;;;;;;;7.20;3.70;;;;;;;15.20;41.96;99438.92;223549;181;140829;-61
2023/05/12 22:41:49;;;;;;;7.80;3.50;;;;;;;15.15;42.13;99438.71;224049;182;136655;-59
2023/05/12 22:46:52;;;;;;;7.80;3.30;;;;;;;15.06;42.58;99443.48;223962;181;147110;-60
2023/05/12 22:51:56;;;;;;;7.00;3.70;;;;;;;14.99;42.81;99445.32;223930;182;138665;-61
2023/05/12 22:56:59;;;;;;;6.80;3.80;;;;;;;14.92;42.74;99447.58;223932;181;137382;-62
2023/05/12 23:02:02;;;;;;;7.20;3.50;;;;;;;14.86;42.93;99446.77;223873;181;147792;-62
2023/05/12 23:07:05;;;;;;;7.10;3.50;;;;;;;14.80;43.14;99448.06;223922;181;138602;-63
2023/05/12 23:12:11;;;;;;;8.50;3.20;;;;;;;14.77;43.30;99446.73;223861;181;137780;-63
2023/05/12 23:17:14;;;;;;;5.60;3.60;;;;;;;14.70;43.29;99446.89;223988;181;148033;-62
2023/05/12 23:22:17;;;;;;;7.80;3.60;;;;;;;14.64;43.41;99446.77;223906;182;139569;-62
2023/05/12 23:27:20;;;;;;;8.70;3.40;;;;;;;14.56;43.50;99445.16;223931;181;136717;-61